createdAt,value
2022-09-21T00:01:16.196Z,80.14
2022-09-21T00:03:44.097Z,79.86
2022-09-21T00:06:14.082Z,79.72
2022-09-21T00:08:40.910Z,79.76
2022-09-21T00:11:08.667Z,79.98
2022-09-21T00:13:37.734Z,79.87
2022-09-21T00:16:08.902Z,79.81
2022-09-21T00:18:36.295Z,79.47
2022-09-21T00:21:10.875Z,80.07
2022-09-21T00:23:37.538Z,79.66
2022-09-21T00:26:10.802Z,80.06
2022-09-21T00:28:38.128Z,79.56
2022-09-21T00:31:07.828Z,79.70
2022-09-21T00:33:34.899Z,79.60
2022-09-21T00:36:10.343Z,79.84
2022-09-21T00:38:38.291Z,79.72
2022-09-21T00:41:06.759Z,79.69
2022-09-21T00:43:40.150Z,79.97
2022-09-21T00:46:32.547Z,80.08
2022-09-21T00:48:59.158Z,79.92
2022-09-21T00:51:26.119Z,80.02
2022-09-21T00:53:56.013Z,80.04
2022-09-21T00:56:23.106Z,79.76
2022-09-21T00:58:52.328Z,79.89
2022-09-21T01:01:19.703Z,80.00
2022-09-21T01:03:47.263Z,80.30
2022-09-21T01:06:16.834Z,80.82
2022-09-21T01:08:46.130Z,81.68
2022-09-21T01:11:15.406Z,82.19
2022-09-21T01:14:11.231Z,81.65
2022-09-21T01:17:15.298Z,81.40
2022-09-21T01:20:20.074Z,81.30
2022-09-21T01:23:04.490Z,81.15
2022-09-21T01:25:48.960Z,80.84
2022-09-21T01:28:41.759Z,81.02
2022-09-21T01:31:15.294Z,81.12
2022-09-21T01:33:52.467Z,81.37
2022-09-21T01:36:24.990Z,81.43
2022-09-21T01:38:58.403Z,81.38
2022-09-21T01:41:28.731Z,81.22
2022-09-21T01:44:01.447Z,81.83
2022-09-21T01:46:32.214Z,81.79
2022-09-21T01:49:06.653Z,81.99
2022-09-21T01:51:34.607Z,81.73
2022-09-21T01:54:20.210Z,82.52
2022-09-21T01:56:52.931Z,82.05
2022-09-21T01:59:30.399Z,82.19
2022-09-21T02:02:08.852Z,81.98
2022-09-21T02:04:35.661Z,81.72
2022-09-21T02:07:02.574Z,81.64
2022-09-21T02:09:29.599Z,81.87
2022-09-21T02:11:58.115Z,82.04
2022-09-21T02:14:25.601Z,81.46
2022-09-21T02:17:19.095Z,81.84
2022-09-21T02:19:54.546Z,81.85
2022-09-21T02:22:54.829Z,82.06
2022-09-21T02:25:34.171Z,81.88
2022-09-21T02:28:25.070Z,82.17
2022-09-21T02:31:24.101Z,81.85
2022-09-21T02:33:59.315Z,81.21
2022-09-21T02:36:39.048Z,82.23
2022-09-21T02:39:17.738Z,82.23
2022-09-21T02:42:08.482Z,82.06
2022-09-21T02:44:40.886Z,81.58
2022-09-21T02:47:28.756Z,81.70
2022-09-21T02:50:01.653Z,81.61
2022-09-21T02:52:30.674Z,81.22
2022-09-21T02:54:57.344Z,81.31
2022-09-21T02:57:24.360Z,81.21
2022-09-21T02:59:51.565Z,80.95
2022-09-21T03:02:18.230Z,81.42
2022-09-21T03:04:47.612Z,81.10
2022-09-21T03:07:16.180Z,81.09
2022-09-21T03:09:42.836Z,81.33
2022-09-21T03:12:09.639Z,80.93
2022-09-21T03:14:36.157Z,80.64
2022-09-21T03:17:02.726Z,80.99
2022-09-21T03:19:29.300Z,80.90
2022-09-21T03:21:55.812Z,80.93
2022-09-21T03:24:51.455Z,80.94
2022-09-21T03:27:20.791Z,80.95
2022-09-21T03:29:47.745Z,80.95
2022-09-21T03:32:14.412Z,80.67
2022-09-21T03:34:41.636Z,80.60
2022-09-21T03:37:09.633Z,80.58
2022-09-21T03:39:36.658Z,80.74
2022-09-21T03:42:04.535Z,80.88
2022-09-21T03:44:31.043Z,80.83
2022-09-21T03:46:58.161Z,80.68
2022-09-21T03:49:25.070Z,80.58
2022-09-21T03:51:51.579Z,80.54
2022-09-21T03:54:18.128Z,80.66
2022-09-21T03:56:44.919Z,80.55
2022-09-21T03:59:14.085Z,80.48
2022-09-21T04:01:41.373Z,80.78
2022-09-21T04:04:08.036Z,80.63
2022-09-21T04:06:34.932Z,80.44
2022-09-21T04:09:02.989Z,80.72
2022-09-21T04:11:30.043Z,80.68
2022-09-21T04:13:57.269Z,80.79
2022-09-21T04:16:25.368Z,80.74
2022-09-21T04:18:51.870Z,80.96
2022-09-21T04:21:19.419Z,80.94
2022-09-21T04:23:46.044Z,80.90
2022-09-21T04:26:30.551Z,81.05
2022-09-21T04:28:57.239Z,80.85
2022-09-21T04:31:25.267Z,80.81
2022-09-21T04:33:53.268Z,81.00
2022-09-21T04:36:21.845Z,80.97
2022-09-21T04:38:48.652Z,80.60
2022-09-21T04:41:16.301Z,80.96
2022-09-21T04:43:44.815Z,80.86
2022-09-21T04:46:17.019Z,80.78
2022-09-21T04:48:43.817Z,80.72
2022-09-21T04:51:11.570Z,80.40
2022-09-21T04:53:39.674Z,80.98
2022-09-21T04:56:07.310Z,80.98
2022-09-21T04:58:34.034Z,80.97
2022-09-21T05:01:01.887Z,80.92
2022-09-21T05:03:28.423Z,81.09
2022-09-21T05:05:56.558Z,81.04
2022-09-21T05:08:43.689Z,81.25
2022-09-21T05:11:14.454Z,81.17
2022-09-21T05:13:41.328Z,81.13
2022-09-21T05:16:08.303Z,81.17
2022-09-21T05:18:35.422Z,81.19
2022-09-21T05:21:03.716Z,81.28
2022-09-21T05:23:31.406Z,81.22
2022-09-21T05:25:59.563Z,81.29
2022-09-21T05:28:26.985Z,81.31
2022-09-21T05:31:16.580Z,81.47
2022-09-21T05:33:52.171Z,81.61
2022-09-21T05:36:31.978Z,81.70
2022-09-21T05:38:58.697Z,81.41
2022-09-21T05:41:25.526Z,81.41
2022-09-21T05:43:52.147Z,81.74
2022-09-21T05:46:42.380Z,82.31
2022-09-21T05:49:35.839Z,81.98
2022-09-21T05:52:07.619Z,81.82
2022-09-21T05:54:55.743Z,82.35
2022-09-21T05:57:30.775Z,82.38
2022-09-21T06:00:18.140Z,82.73
2022-09-21T06:03:04.088Z,82.89
2022-09-21T06:05:30.553Z,82.59
2022-09-21T06:07:57.030Z,82.88
2022-09-21T06:10:25.048Z,83.11
2022-09-21T06:12:51.514Z,83.10
2022-09-21T06:15:18.106Z,83.01
2022-09-21T06:17:44.568Z,83.12
2022-09-21T06:20:11.083Z,83.04
2022-09-21T06:22:37.596Z,83.25
2022-09-21T06:25:04.325Z,83.60
2022-09-21T06:27:30.880Z,83.72
2022-09-21T06:29:57.412Z,83.80
2022-09-21T06:32:24.605Z,84.19
2022-09-21T06:34:51.079Z,83.93
2022-09-21T06:37:17.663Z,84.26
2022-09-21T06:39:44.242Z,84.40
2022-09-21T06:42:10.747Z,84.23
2022-09-21T06:44:37.210Z,84.37
2022-09-21T06:47:03.820Z,84.96
2022-09-21T06:49:30.348Z,84.64
2022-09-21T06:51:56.872Z,84.89
2022-09-21T06:54:24.572Z,84.88
2022-09-21T06:56:51.110Z,84.80
2022-09-21T06:59:17.593Z,84.94
2022-09-21T07:01:44.338Z,84.87
2022-09-21T07:04:10.964Z,85.46
2022-09-21T07:06:37.452Z,86.25
2022-09-21T07:11:50.750Z,86.46
2022-09-21T07:14:17.218Z,87.31
2022-09-21T07:16:43.782Z,87.97
2022-09-21T07:19:11.535Z,87.13
2022-09-21T07:21:38.556Z,87.57
2022-09-21T07:24:09.487Z,87.88
2022-09-21T07:26:38.390Z,88.53
2022-09-21T07:29:05.131Z,87.99
2022-09-21T07:31:31.885Z,87.71
2022-09-21T07:33:59.062Z,87.98
2022-09-21T07:36:25.764Z,87.44
2022-09-21T07:38:53.923Z,87.88
2022-09-21T07:41:21.203Z,86.88
2022-09-21T07:43:47.671Z,87.50
2022-09-21T07:46:15.249Z,87.17
2022-09-21T07:48:42.407Z,87.13
2022-09-21T07:51:11.976Z,86.53
2022-09-21T07:53:41.525Z,87.13
2022-09-21T07:56:14.409Z,87.20
2022-09-21T07:58:59.675Z,86.46
2022-09-21T08:01:27.425Z,86.86
2022-09-21T08:03:55.882Z,85.88
2022-09-21T08:06:24.075Z,85.84
2022-09-21T08:08:56.617Z,85.29
2022-09-21T08:11:25.819Z,84.03
2022-09-21T08:13:53.634Z,84.57
2022-09-21T08:16:20.537Z,84.18
2022-09-21T08:18:47.068Z,83.80
2022-09-21T08:21:14.251Z,84.33
2022-09-21T08:23:42.539Z,83.47
2022-09-21T08:26:17.365Z,83.25
2022-09-21T08:28:44.414Z,83.26
2022-09-21T08:31:10.991Z,83.65
2022-09-21T08:33:37.518Z,83.43
2022-09-21T08:36:04.692Z,83.43
2022-09-21T08:38:36.672Z,83.04
2022-09-21T08:41:31.293Z,83.16
2022-09-21T08:44:04.229Z,82.71
2022-09-21T08:46:33.706Z,82.19
2022-09-21T08:49:06.921Z,81.53
2022-09-21T08:51:37.882Z,81.26
2022-09-21T08:54:18.271Z,80.39
2022-09-21T08:57:03.897Z,79.13
2022-09-21T08:59:31.361Z,78.30
2022-09-21T09:02:10.486Z,79.16
2022-09-21T09:04:49.796Z,79.77
2022-09-21T09:07:54.303Z,79.79
2022-09-21T09:10:47.585Z,78.33
2022-09-21T09:13:28.156Z,78.65
2022-09-21T09:16:20.812Z,78.98
2022-09-21T09:18:57.505Z,78.45
2022-09-21T09:21:39.084Z,78.64
2022-09-21T09:24:27.002Z,76.93
2022-09-21T09:27:17.581Z,76.56
2022-09-21T09:30:03.577Z,77.45
2022-09-21T09:32:46.896Z,77.71
2022-09-21T09:35:28.429Z,76.44
2022-09-21T09:37:58.541Z,75.94
2022-09-21T09:41:02.466Z,75.27
2022-09-21T09:43:39.651Z,76.14
2022-09-21T09:46:15.107Z,76.00
2022-09-21T09:48:55.035Z,75.69
2022-09-21T09:51:21.608Z,74.09
2022-09-21T09:53:48.212Z,74.68
2022-09-21T09:56:14.824Z,74.35
2022-09-21T09:58:50.667Z,73.56
2022-09-21T10:01:42.621Z,74.08
2022-09-21T10:04:17.985Z,71.47
2022-09-21T10:06:46.770Z,72.11
2022-09-21T10:09:36.645Z,72.05
2022-09-21T10:12:24.714Z,72.25
2022-09-21T10:15:00.755Z,71.58
2022-09-21T10:17:27.835Z,70.40
2022-09-21T10:20:01.526Z,71.09
2022-09-21T10:22:29.081Z,71.09
2022-09-21T10:24:58.966Z,71.14
2022-09-21T10:27:35.600Z,72.38
2022-09-21T10:30:02.237Z,71.00
2022-09-21T10:32:29.731Z,70.90
2022-09-21T10:35:15.662Z,71.68
2022-09-21T10:37:44.900Z,71.26
2022-09-21T10:40:17.241Z,69.80
2022-09-21T10:42:44.059Z,69.64
2022-09-21T10:45:17.663Z,68.33
2022-09-21T10:47:47.401Z,67.97
2022-09-21T10:50:36.688Z,66.42
2022-09-21T10:53:08.975Z,65.52
2022-09-21T10:56:15.989Z,67.55
2022-09-21T10:59:11.640Z,67.25
2022-09-21T11:01:44.959Z,65.86
2022-09-21T11:04:19.412Z,64.68
2022-09-21T11:06:52.213Z,61.91
2022-09-21T11:09:25.304Z,59.40
2022-09-21T11:12:02.403Z,58.87
2022-09-21T11:14:45.478Z,59.59
2022-09-21T11:17:26.335Z,60.53
2022-09-21T11:20:08.659Z,57.32
2022-09-21T11:23:10.864Z,60.77
2022-09-21T11:25:47.256Z,59.03
2022-09-21T11:28:40.772Z,59.03
2022-09-21T11:31:14.583Z,53.94
2022-09-21T11:34:15.600Z,57.25
2022-09-21T11:37:10.086Z,56.49
2022-09-21T11:40:25.101Z,57.30
2022-09-21T11:43:10.255Z,56.31
2022-09-21T11:45:50.350Z,58.83
2022-09-21T11:48:37.978Z,58.56
2022-09-21T11:51:19.197Z,58.86
2022-09-21T11:53:46.625Z,55.75
2022-09-21T11:56:24.961Z,56.82
2022-09-21T11:59:06.798Z,54.76
2022-09-21T12:01:36.609Z,56.75
2022-09-21T12:04:42.257Z,56.68
2022-09-21T12:07:20.758Z,56.71
2022-09-21T12:10:11.795Z,56.34
2022-09-21T12:12:43.768Z,53.82
2022-09-21T12:15:19.683Z,52.32
2022-09-21T12:18:07.674Z,51.70
2022-09-21T12:21:04.895Z,54.40
2022-09-21T12:23:49.174Z,54.92
2022-09-21T12:26:20.896Z,52.42
2022-09-21T12:28:56.271Z,54.07
2022-09-21T12:31:31.570Z,52.29
2022-09-21T12:34:03.531Z,50.38
2022-09-21T12:36:47.560Z,48.49
2022-09-21T12:39:49.684Z,51.12
2022-09-21T12:42:22.271Z,52.47
2022-09-21T12:44:58.240Z,52.12
2022-09-21T12:47:45.588Z,53.60
2022-09-21T12:50:26.051Z,53.03
2022-09-21T12:52:54.694Z,52.50
2022-09-21T12:55:32.102Z,50.12
2022-09-21T12:58:15.257Z,49.37
2022-09-21T13:01:12.829Z,51.58
2022-09-21T13:03:53.202Z,50.68
2022-09-21T13:06:41.013Z,51.27
2022-09-21T13:09:12.608Z,51.22
2022-09-21T13:11:54.287Z,52.98
2022-09-21T13:14:22.632Z,53.00
2022-09-21T13:17:00.388Z,52.68
2022-09-21T13:19:31.018Z,52.61
2022-09-21T13:22:19.768Z,52.92
2022-09-21T13:25:02.899Z,50.61
2022-09-21T13:28:19.582Z,51.66
2022-09-21T13:31:18.485Z,51.17
2022-09-21T13:34:28.417Z,51.21
2022-09-21T13:37:19.175Z,49.92
2022-09-21T13:39:51.162Z,49.72
2022-09-21T13:42:32.791Z,50.45
2022-09-21T13:45:15.448Z,48.35
2022-09-21T13:47:47.428Z,50.16
2022-09-21T13:50:20.658Z,52.21
2022-09-21T13:52:52.218Z,49.12
2022-09-21T13:55:29.319Z,52.11
2022-09-21T13:57:58.825Z,48.66
2022-09-21T14:00:32.408Z,48.12
2022-09-21T14:03:04.024Z,47.46
2022-09-21T14:05:42.543Z,45.59
2022-09-21T14:08:14.729Z,47.68
2022-09-21T14:10:57.295Z,47.77
2022-09-21T14:13:32.687Z,49.19
2022-09-21T14:16:37.252Z,50.23
2022-09-21T14:19:26.759Z,48.12
2022-09-21T14:22:08.171Z,47.32
2022-09-21T14:24:49.893Z,46.46
2022-09-21T14:27:32.136Z,46.93
2022-09-21T14:30:19.919Z,44.71
2022-09-21T14:32:49.192Z,43.61
2022-09-21T14:35:22.820Z,45.05
2022-09-21T14:37:56.198Z,43.96
2022-09-21T14:40:25.362Z,44.86
2022-09-21T14:42:58.182Z,44.21
2022-09-21T14:45:45.947Z,45.76
2022-09-21T14:48:30.369Z,44.06
2022-09-21T14:51:19.511Z,42.75
2022-09-21T14:54:08.568Z,44.85
2022-09-21T14:57:19.033Z,43.34
2022-09-21T14:59:53.299Z,43.19
2022-09-21T15:02:29.262Z,43.98
2022-09-21T15:05:12.228Z,44.70
2022-09-21T15:08:01.187Z,44.11
2022-09-21T15:10:56.812Z,45.03
2022-09-21T15:13:38.501Z,45.57
2022-09-21T15:16:17.272Z,44.41
2022-09-21T15:18:46.960Z,43.48
2022-09-21T15:21:32.921Z,46.32
2022-09-21T15:24:10.276Z,43.03
2022-09-21T15:26:40.280Z,43.48
2022-09-21T15:29:10.713Z,43.11
2022-09-21T15:31:41.956Z,44.13
2022-09-21T15:34:11.152Z,43.36
2022-09-21T15:36:40.448Z,41.69
2022-09-21T15:39:07.483Z,42.62
2022-09-21T15:41:44.687Z,41.88
2022-09-21T15:44:23.824Z,45.52
2022-09-21T15:46:57.759Z,43.49
2022-09-21T15:49:24.929Z,42.63
2022-09-21T15:51:58.582Z,43.77
2022-09-21T15:54:37.884Z,44.34
2022-09-21T15:57:24.009Z,44.96
2022-09-21T15:59:51.083Z,45.02
2022-09-21T16:02:23.484Z,45.41
2022-09-21T16:04:52.485Z,43.52
2022-09-21T16:08:03.642Z,45.61
2022-09-21T16:10:30.098Z,43.71
2022-09-21T16:13:33.778Z,46.15
2022-09-21T16:16:06.274Z,43.98
2022-09-21T16:18:46.670Z,45.70
2022-09-21T16:21:23.629Z,43.29
2022-09-21T16:23:54.652Z,45.68
2022-09-21T16:26:28.642Z,43.81
2022-09-21T16:29:23.901Z,46.20
2022-09-21T16:31:51.382Z,45.19
2022-09-21T16:34:36.721Z,46.28
2022-09-21T16:37:28.629Z,45.63
2022-09-21T16:39:59.628Z,47.23
2022-09-21T16:42:32.732Z,47.68
2022-09-21T16:45:00.546Z,46.73
2022-09-21T16:47:27.957Z,46.08
2022-09-21T16:50:02.431Z,46.05
2022-09-21T16:52:30.109Z,47.39
2022-09-21T16:54:58.569Z,48.43
2022-09-21T16:57:26.074Z,46.98
2022-09-21T16:59:52.861Z,47.85
2022-09-21T17:02:19.379Z,49.04
2022-09-21T17:04:45.889Z,45.99
2022-09-21T17:07:13.933Z,48.17
2022-09-21T17:09:44.328Z,51.60
2022-09-21T17:12:13.414Z,51.29
2022-09-21T17:14:45.737Z,51.60
2022-09-21T17:17:19.621Z,51.76
2022-09-21T17:19:49.617Z,52.34
2022-09-21T17:22:19.504Z,52.28
2022-09-21T17:24:51.334Z,54.29
2022-09-21T17:27:22.483Z,53.65
2022-09-21T17:29:50.015Z,54.83
2022-09-21T17:32:22.478Z,55.01
2022-09-21T17:34:58.674Z,55.55
2022-09-21T17:37:25.318Z,55.06
2022-09-21T17:39:53.483Z,55.69
2022-09-21T17:42:24.991Z,56.36
2022-09-21T17:45:13.095Z,57.65
2022-09-21T17:47:40.807Z,58.08
2022-09-21T17:50:13.045Z,58.28
2022-09-21T17:53:02.222Z,57.43
2022-09-21T17:55:29.358Z,58.59
2022-09-21T17:58:14.192Z,59.41
2022-09-21T18:01:01.878Z,59.22
2022-09-21T18:03:30.514Z,59.24
2022-09-21T18:06:00.467Z,59.66
2022-09-21T18:08:33.144Z,60.46
2022-09-21T18:11:18.439Z,60.25
2022-09-21T18:13:57.306Z,60.15
2022-09-21T18:16:30.980Z,60.51
2022-09-21T18:19:05.652Z,60.70
2022-09-21T18:21:39.509Z,61.02
2022-09-21T18:24:18.946Z,61.18
2022-09-21T18:26:45.703Z,60.76
2022-09-21T18:29:38.846Z,61.55
2022-09-21T18:32:40.981Z,61.38
2022-09-21T18:35:24.454Z,62.07
2022-09-21T18:38:34.357Z,61.01
2022-09-21T18:41:21.984Z,60.93
2022-09-21T18:44:04.176Z,61.67
2022-09-21T18:46:39.670Z,62.30
2022-09-21T18:49:50.411Z,61.67
2022-09-21T18:52:45.967Z,61.77
2022-09-21T18:55:28.250Z,62.00
2022-09-21T18:57:56.607Z,62.00
2022-09-21T19:00:30.911Z,62.62
2022-09-21T19:03:16.525Z,62.35
2022-09-21T19:06:09.466Z,62.31
2022-09-21T19:09:11.316Z,62.86
2022-09-21T19:11:56.931Z,62.92
2022-09-21T19:14:38.380Z,62.78
2022-09-21T19:17:20.448Z,62.42
2022-09-21T19:19:53.803Z,63.12
2022-09-21T19:22:37.215Z,62.98
2022-09-21T19:25:31.060Z,62.96
2022-09-21T19:28:10.065Z,62.71
2022-09-21T19:30:38.670Z,63.30
2022-09-21T19:33:48.829Z,63.12
2022-09-21T19:36:14.112Z,63.13
2022-09-21T19:38:40.795Z,63.63
2022-09-21T19:41:35.363Z,63.87
2022-09-21T19:44:16.332Z,63.46
2022-09-21T19:46:58.474Z,64.18
2022-09-21T19:49:35.883Z,64.11
2022-09-21T19:52:05.453Z,63.82
2022-09-21T19:54:51.075Z,63.81
2022-09-21T19:57:38.702Z,64.13
2022-09-21T20:00:08.333Z,64.14
2022-09-21T20:03:07.361Z,64.02
2022-09-21T20:06:05.844Z,64.15
2022-09-21T20:08:41.839Z,64.20
2022-09-21T20:11:17.243Z,64.63
2022-09-21T20:13:46.566Z,64.42
2022-09-21T20:16:33.015Z,64.69
2022-09-21T20:19:03.340Z,64.89
2022-09-21T20:21:42.242Z,64.77
2022-09-21T20:24:19.705Z,65.36
2022-09-21T20:26:50.811Z,65.21
2022-09-21T20:29:18.395Z,64.84
2022-09-21T20:31:47.262Z,65.36
2022-09-21T20:34:14.015Z,65.42
2022-09-21T20:36:40.497Z,65.22
2022-09-21T20:39:07.059Z,65.27
2022-09-21T20:41:33.547Z,65.31
2022-09-21T20:44:01.672Z,65.19
2022-09-21T20:46:28.206Z,65.60
2022-09-21T20:49:00.125Z,65.56
2022-09-21T20:51:27.616Z,65.39
2022-09-21T20:53:54.097Z,65.48
2022-09-21T20:56:20.564Z,65.40
2022-09-21T20:58:47.050Z,65.72
2022-09-21T21:01:13.574Z,65.44
2022-09-21T21:03:40.111Z,65.76
2022-09-21T21:06:08.423Z,65.83
2022-09-21T21:08:34.927Z,66.03
2022-09-21T21:11:01.491Z,65.65
2022-09-21T21:13:31.120Z,66.46
2022-09-21T21:16:00.083Z,66.38
2022-09-21T21:18:27.450Z,66.15
2022-09-21T21:20:53.940Z,66.30
2022-09-21T21:23:20.498Z,66.59
2022-09-21T21:25:47.913Z,66.46
2022-09-21T21:28:14.506Z,66.48
2022-09-21T21:30:40.991Z,66.42
2022-09-21T21:33:07.494Z,66.85
2022-09-21T21:35:33.990Z,66.70
2022-09-21T21:38:00.591Z,66.54
2022-09-21T21:40:27.233Z,66.72
2022-09-21T21:42:55.304Z,67.19
2022-09-21T21:45:21.943Z,67.07
2022-09-21T21:47:48.424Z,66.78
2022-09-21T21:50:14.973Z,67.32
2022-09-21T21:52:41.513Z,67.21
2022-09-21T21:55:08.595Z,67.36
2022-09-21T21:57:35.087Z,67.49
2022-09-21T22:00:01.797Z,67.35
2022-09-21T22:02:32.026Z,67.88
2022-09-21T22:04:59.002Z,67.60
2022-09-21T22:07:25.507Z,67.50
2022-09-21T22:09:51.993Z,67.71
2022-09-21T22:12:18.502Z,67.76
2022-09-21T22:14:46.293Z,67.75
2022-09-21T22:17:12.914Z,68.01
2022-09-21T22:19:39.402Z,67.92
2022-09-21T22:22:05.913Z,67.91
2022-09-21T22:24:32.399Z,68.52
2022-09-21T22:26:58.921Z,68.32
2022-09-21T22:29:25.387Z,68.62
2022-09-21T22:31:51.948Z,68.37
2022-09-21T22:34:20.149Z,68.55
2022-09-21T22:36:46.697Z,68.77
2022-09-21T22:39:13.317Z,68.49
2022-09-21T22:41:41.653Z,68.63
2022-09-21T22:44:09.975Z,68.98
2022-09-21T22:46:36.675Z,68.92
2022-09-21T22:49:03.674Z,68.89
2022-09-21T22:51:30.703Z,68.35
2022-09-21T22:53:57.939Z,68.97
2022-09-21T22:56:26.904Z,69.35
2022-09-21T22:58:55.886Z,69.31
2022-09-21T23:01:28.499Z,69.27
2022-09-21T23:03:57.709Z,69.39
2022-09-21T23:06:26.542Z,69.41
2022-09-21T23:08:54.662Z,69.52
2022-09-21T23:11:27.083Z,69.55
2022-09-21T23:13:55.371Z,69.64
2022-09-21T23:16:23.334Z,69.25
2022-09-21T23:18:50.417Z,69.61
2022-09-21T23:21:20.007Z,69.56
2022-09-21T23:23:46.563Z,69.76
2022-09-21T23:26:17.999Z,69.81
2022-09-21T23:28:50.743Z,70.17
2022-09-21T23:31:17.723Z,70.09
2022-09-21T23:33:47.246Z,70.17
2022-09-21T23:36:16.326Z,70.00
2022-09-21T23:38:43.591Z,70.13
2022-09-21T23:41:12.890Z,70.19
2022-09-21T23:43:41.190Z,70.55
2022-09-21T23:46:09.323Z,70.24
2022-09-21T23:48:36.413Z,70.20
2022-09-21T23:51:03.475Z,70.47
2022-09-21T23:53:30.948Z,70.84
2022-09-21T23:55:57.765Z,70.49
2022-09-21T23:58:26.407Z,70.63
